Time;durP1;ratioP1;P1;durP2;ratioP2;P2;SDS_P1;SDS_P2;PMS_P1;PMS_P2;Temp;Humidity;BMP_temperature;BMP_pressure;BME280_temperature;BME280_humidity;BME280_pressure;Samples;Min_cycle;Max_cycle;Signal;HPM_P1;HPM_P2
2021/06/10 00:02:25;;;;;;;;;15.00;15.00;;;;;26.19;42.54;101681.34;5022788;28;45223;-71
2021/06/10 00:04:51;;;;;;;;;14.00;12.33;;;;;26.19;42.67;101675.19;5021995;28;46350;-70
2021/06/10 00:07:18;;;;;;;;;14.67;14.00;;;;;26.20;42.47;101676.91;5021568;28;60652;-70
2021/06/10 00:09:45;;;;;;;;;11.33;11.33;;;;;26.19;42.41;101677.84;5022392;28;45426;-71
2021/06/10 00:12:13;;;;;;;;;13.67;13.33;;;;;26.19;42.83;101676.03;5022302;28;45460;-71
2021/06/10 00:14:40;;;;;;;;;13.33;12.67;;;;;26.19;42.60;101672.53;5006359;28;45244;-70
2021/06/10 00:17:05;;;;;;;;;15.00;14.33;;;;;26.19;42.74;101673.34;5020905;28;45478;-70
2021/06/10 00:19:31;;;;;;;;;13.00;13.00;;;;;26.17;42.83;101668.13;5020658;28;45268;-70
2021/06/10 00:21:56;;;;;;;;;12.00;12.00;;;;;26.20;42.77;101675.09;5020997;28;45464;-70
2021/06/10 00:24:21;;;;;;;;;15.00;15.00;;;;;26.19;42.55;101672.53;5021542;28;57687;-70
2021/06/10 00:26:47;;;;;;;;;13.33;12.33;;;;;26.18;42.64;101674.31;5020860;28;55852;-70
2021/06/10 00:29:12;;;;;;;;;11.00;11.00;;;;;26.18;42.41;101679.63;5010639;28;45520;-70
2021/06/10 00:31:38;;;;;;;;;13.00;13.00;;;;;26.19;42.51;101683.16;5011515;28;45502;-70
2021/06/10 00:34:03;;;;;;;;;17.00;15.00;;;;;26.17;43.15;101675.25;5017838;28;69324;-70
2021/06/10 00:36:29;;;;;;;;;14.00;14.00;;;;;26.17;43.01;101673.47;5017364;28;45595;-71
2021/06/10 00:38:54;;;;;;;;;15.33;13.33;;;;;26.17;42.59;101678.78;5005480;28;45501;-70
2021/06/10 00:41:20;;;;;;;;;12.00;11.67;;;;;26.18;43.05;101679.63;5021071;28;45379;-71
2021/06/10 00:43:46;;;;;;;;;13.00;13.00;;;;;26.17;42.93;101681.44;5009860;28;45723;-70
2021/06/10 00:46:12;;;;;;;;;13.00;13.00;;;;;26.17;43.11;101680.56;5018149;28;45380;-70
2021/06/10 00:48:38;;;;;;;;;12.67;12.67;;;;;26.16;43.40;101682.38;5036746;28;45339;-70
2021/06/10 00:51:03;;;;;;;;;15.67;15.00;;;;;26.17;43.00;101684.09;5013006;28;45364;-69
2021/06/10 00:53:29;;;;;;;;;12.00;12.00;;;;;26.16;42.89;101685.03;5021532;28;45236;-70
2021/06/10 00:55:59;;;;;;;;;12.33;12.33;;;;;26.16;43.08;101684.19;5020253;28;45410;-70
2021/06/10 00:58:26;;;;;;;;;12.33;12.33;;;;;26.16;43.04;101679.72;5020498;28;45466;-69
2021/06/10 01:00:52;;;;;;;;;15.67;15.67;;;;;26.15;43.30;101672.69;5022013;28;45426;-70
2021/06/10 01:03:18;;;;;;;;;13.00;13.00;;;;;26.15;43.11;101678.00;5021319;28;46132;-70
2021/06/10 01:05:47;;;;;;;;;13.33;13.33;;;;;26.16;43.17;101676.22;5021312;28;45223;-70
2021/06/10 01:08:24;;;;;;;;;15.33;14.33;;;;;26.15;43.21;101672.69;5021486;28;45417;-70
2021/06/10 01:10:55;;;;;;;;;13.33;13.00;;;;;26.16;43.45;101676.22;5020454;28;45369;-70
2021/06/10 01:13:24;;;;;;;;;13.67;13.67;;;;;26.15;43.19;101671.81;5021528;28;45570;-71
2021/06/10 01:15:53;;;;;;;;;14.33;12.00;;;;;26.15;43.38;101675.34;5021162;28;45318;-71
2021/06/10 01:18:19;;;;;;;;;11.67;11.33;;;;;26.14;43.36;101681.59;5036872;28;45367;-70
2021/06/10 01:20:44;;;;;;;;;15.33;15.33;;;;;26.14;42.97;101670.94;5019989;28;45395;-69
2021/06/10 01:23:44;;;;;;;;;15.00;14.00;;;;;26.14;43.07;101675.44;5021043;28;57689;-69
2021/06/10 01:26:16;;;;;;;;;14.33;12.33;;;;;26.14;43.39;101676.28;5021160;28;45335;-69
2021/06/10 01:28:43;;;;;;;;;17.00;16.00;;;;;26.14;43.31;101670.09;5018413;28;45477;-70
2021/06/10 01:31:10;;;;;;;;;13.00;13.00;;;;;26.13;43.62;101660.41;5010589;28;45304;-70
2021/06/10 01:34:05;;;;;;;;;12.33;11.33;;;;;26.13;43.44;101665.72;5006474;28;45374;-69
2021/06/10 01:36:34;;;;;;;;;15.00;15.00;;;;;26.12;43.35;101662.19;5003886;28;45440;-70
2021/06/10 01:39:04;;;;;;;;;12.67;12.67;;;;;26.14;43.28;101660.31;5021178;28;45301;-69
2021/06/10 01:41:31;;;;;;;;;14.33;14.33;;;;;26.13;43.47;101657.75;5025386;28;45354;-70
2021/06/10 01:43:58;;;;;;;;;13.00;13.00;;;;;26.13;43.42;101657.75;5024348;28;45267;-70
2021/06/10 01:46:24;;;;;;;;;12.33;12.33;;;;;26.12;43.63;101662.19;5023974;28;45281;-70
2021/06/10 01:48:51;;;;;;;;;15.67;14.67;;;;;26.12;43.68;101661.34;5025684;28;45334;-70
2021/06/10 01:51:20;;;;;;;;;13.67;13.67;;;;;26.12;43.57;101659.53;5023614;28;53519;-69
2021/06/10 01:53:47;;;;;;;;;12.00;12.00;;;;;26.11;43.68;101657.81;5026268;28;46061;-70
2021/06/10 01:56:12;;;;;;;;;13.00;13.00;;;;;26.11;43.80;101665.78;5023339;28;45233;-70
2021/06/10 01:58:38;;;;;;;;;12.33;12.33;;;;;26.11;43.69;101659.63;5024171;28;45264;-70
2021/06/10 02:01:06;;;;;;;;;14.33;14.33;;;;;26.10;43.64;101664.03;5011657;28;45324;-70
2021/06/10 02:03:31;;;;;;;;;11.33;11.33;;;;;26.10;44.02;101658.72;5005121;28;47677;-70
2021/06/10 02:05:58;;;;;;;;;12.33;11.67;;;;;26.10;43.53;101660.53;5039288;28;59711;-70
2021/06/10 02:08:24;;;;;;;;;12.00;12.00;;;;;26.09;43.57;101657.00;5024196;28;45338;-69
2021/06/10 02:10:52;;;;;;;;;13.33;13.00;;;;;26.09;43.68;101651.69;5006581;28;45351;-70
2021/06/10 02:13:19;;;;;;;;;14.00;14.00;;;;;26.08;43.77;101650.00;5023210;28;45276;-70
2021/06/10 02:15:45;;;;;;;;;15.00;14.67;;;;;26.08;43.96;101650.00;5024793;28;45173;-72
2021/06/10 02:18:12;;;;;;;;;14.33;13.00;;;;;26.08;43.83;101646.44;5025442;28;45235;-70
2021/06/10 02:20:38;;;;;;;;;13.00;12.00;;;;;26.07;44.07;101653.59;5024046;28;45373;-69
2021/06/10 02:23:03;;;;;;;;;14.00;13.33;;;;;26.06;44.00;101654.53;5024221;28;45361;-70
2021/06/10 02:25:28;;;;;;;;;12.00;11.00;;;;;26.06;43.82;101657.19;5024648;28;45414;-70
2021/06/10 02:27:54;;;;;;;;;13.00;12.33;;;;;26.06;43.66;101661.63;5020779;28;45310;-69
2021/06/10 02:30:20;;;;;;;;;12.67;12.67;;;;;26.05;44.20;101652.81;5024443;28;45464;-70
2021/06/10 02:32:45;;;;;;;;;13.67;13.00;;;;;26.05;44.33;101663.44;5011216;28;45369;-70
2021/06/10 02:35:12;;;;;;;;;12.00;12.00;;;;;26.04;43.94;101659.06;5024139;28;59192;-70
2021/06/10 02:37:38;;;;;;;;;14.00;13.00;;;;;26.05;43.93;101660.78;5010826;28;45228;-69
2021/06/10 02:40:09;;;;;;;;;13.50;13.50;;;;;26.04;43.77;101659.06;5016747;28;45506;-69
2021/06/10 02:42:36;;;;;;;;;13.67;13.67;;;;;26.04;43.81;101653.75;5024902;28;45979;-70
2021/06/10 02:45:04;;;;;;;;;18.33;15.00;;;;;26.03;44.14;101652.88;5024314;28;45287;-70
2021/06/10 02:47:30;;;;;;;;;11.00;11.00;;;;;26.03;44.03;101654.69;5023021;28;45373;-72
2021/06/10 02:49:55;;;;;;;;;13.33;13.33;;;;;26.03;43.79;101650.19;5022526;28;45222;-71
2021/06/10 02:52:21;;;;;;;;;12.67;12.67;;;;;26.02;43.72;101647.63;5022750;28;71568;-70
2021/06/10 02:54:47;;;;;;;;;11.67;11.67;;;;;26.01;44.32;101641.47;5022299;28;45288;-70
2021/06/10 02:57:14;;;;;;;;;15.33;12.33;;;;;26.01;43.86;101645.91;5022384;28;45401;-70
2021/06/10 02:59:42;;;;;;;;;14.00;14.00;;;;;26.01;43.84;101649.44;5038849;28;45299;-71
2021/06/10 03:02:09;;;;;;;;;14.00;11.00;;;;;26.00;44.11;101647.72;5022062;28;45220;-71
2021/06/10 03:04:34;;;;;;;;;12.33;12.33;;;;;26.00;43.80;101644.19;5021822;28;45207;-71
2021/06/10 03:07:01;;;;;;;;;14.33;14.33;;;;;26.00;43.81;101650.41;5005679;28;45251;-70
2021/06/10 03:09:27;;;;;;;;;11.33;11.33;;;;;25.99;43.95;101650.44;5023613;28;45256;-70
2021/06/10 03:11:53;;;;;;;;;14.50;14.50;;;;;26.00;44.32;101655.72;5022023;28;46819;-71
2021/06/10 03:14:19;;;;;;;;;13.33;13.33;;;;;25.99;43.90;101658.44;5005300;28;45364;-70
2021/06/10 03:16:46;;;;;;;;;12.00;12.00;;;;;25.98;44.01;101654.94;5005267;28;45476;-70
2021/06/10 03:19:11;;;;;;;;;13.33;13.33;;;;;25.99;44.36;101654.00;5022871;28;45465;-70
2021/06/10 03:21:37;;;;;;;;;11.33;11.33;;;;;25.98;44.12;101640.75;5021189;28;65764;-71
2021/06/10 03:24:03;;;;;;;;;11.67;11.67;;;;;25.97;43.93;101647.88;5038640;28;45277;-68
2021/06/10 03:26:29;;;;;;;;;13.00;10.67;;;;;25.98;44.26;101654.06;5023558;28;45472;-68
2021/06/10 03:28:55;;;;;;;;;15.00;14.00;;;;;25.97;44.08;101649.66;5018433;28;45266;-69
2021/06/10 03:31:21;;;;;;;;;13.00;12.67;;;;;25.96;44.30;101651.47;5015138;28;46139;-69
2021/06/10 03:33:48;;;;;;;;;10.67;10.33;;;;;25.95;43.87;101647.09;5016131;28;45267;-69
2021/06/10 03:36:14;;;;;;;;;13.00;13.00;;;;;25.95;44.46;101648.88;4997733;28;45541;-71
2021/06/10 03:38:40;;;;;;;;;13.00;12.33;;;;;25.94;44.15;101648.03;5016436;28;45610;-71
2021/06/10 03:41:06;;;;;;;;;11.67;11.67;;;;;25.94;44.15;101644.53;5021549;28;46979;-71
2021/06/10 03:43:32;;;;;;;;;15.33;14.00;;;;;25.93;44.30;101633.03;5021323;28;45431;-71
2021/06/10 03:45:58;;;;;;;;;12.33;12.00;;;;;25.93;44.11;101632.19;5022649;28;45430;-71
2021/06/10 03:48:24;;;;;;;;;12.33;12.00;;;;;25.92;44.00;101631.31;5037564;28;45516;-70
2021/06/10 03:50:49;;;;;;;;;15.00;12.67;;;;;25.92;44.16;101630.47;5037892;28;46250;-71
2021/06/10 03:53:15;;;;;;;;;13.67;13.67;;;;;25.92;44.22;101633.13;5022345;28;52584;-72
2021/06/10 03:55:41;;;;;;;;;13.00;11.67;;;;;25.91;44.40;101629.59;5022682;28;45351;-70
2021/06/10 03:58:06;;;;;;;;;14.00;12.67;;;;;25.91;44.11;101626.09;5022768;28;45283;-71
2021/06/10 04:00:31;;;;;;;;;10.00;10.00;;;;;25.91;44.20;101629.59;5021403;28;46329;-70
2021/06/10 04:02:58;;;;;;;;;12.00;12.00;;;;;25.91;44.04;101628.75;5022056;28;51323;-70
2021/06/10 04:05:27;;;;;;;;;12.67;12.33;;;;;25.89;43.99;101631.47;5022416;28;45378;-70
2021/06/10 04:07:56;;;;;;;;;12.00;12.00;;;;;25.89;44.29;101627.97;5022275;28;45473;-71
2021/06/10 04:10:22;;;;;;;;;10.00;10.00;;;;;25.89;44.28;101631.47;5022285;28;45280;-71
2021/06/10 04:12:47;;;;;;;;;14.00;11.00;;;;;25.88;44.18;101629.75;5022430;28;45251;-70
2021/06/10 04:15:13;;;;;;;;;12.00;12.00;;;;;25.89;44.17;101631.47;5022336;28;45291;-70
2021/06/10 04:17:39;;;;;;;;;13.00;13.00;;;;;25.89;44.25;101630.63;5022205;28;45282;-71
2021/06/10 04:20:07;;;;;;;;;13.00;13.00;;;;;25.87;44.19;101631.56;5019766;28;65105;-71
2021/06/10 04:22:32;;;;;;;;;13.00;11.33;;;;;25.89;43.83;101633.28;5022082;28;45399;-71
2021/06/10 04:24:58;;;;;;;;;9.67;9.67;;;;;25.87;44.10;101636.00;5021053;28;45603;-71
2021/06/10 04:27:23;;;;;;;;;12.67;11.00;;;;;25.87;43.92;101633.34;5016503;28;56588;-71
2021/06/10 04:29:48;;;;;;;;;12.67;12.67;;;;;25.86;44.49;101635.16;5020839;28;47201;-71
2021/06/10 04:32:14;;;;;;;;;12.67;11.00;;;;;25.85;44.03;101641.41;5006819;28;60083;-71
2021/06/10 04:34:39;;;;;;;;;12.00;12.00;;;;;25.85;43.96;101641.41;5036636;28;57733;-70
2021/06/10 04:37:04;;;;;;;;;10.33;10.33;;;;;25.85;43.87;101648.53;5010854;28;51753;-71
2021/06/10 04:39:30;;;;;;;;;10.67;10.67;;;;;25.85;43.91;101651.19;5010500;28;45320;-70
2021/06/10 04:41:55;;;;;;;;;14.00;14.00;;;;;25.84;43.84;101652.97;5021814;28;45310;-69
2021/06/10 04:44:21;;;;;;;;;9.67;9.67;;;;;25.84;43.97;101657.44;5021187;28;60943;-72
2021/06/10 04:46:46;;;;;;;;;15.00;12.67;;;;;25.84;44.29;101658.31;5022024;28;45226;-70
2021/06/10 04:49:12;;;;;;;;;12.33;12.33;;;;;25.83;43.83;101653.91;5021429;28;45242;-70
2021/06/10 04:51:38;;;;;;;;;11.00;11.00;;;;;25.83;44.14;101648.59;5021538;28;45473;-70
2021/06/10 04:54:03;;;;;;;;;10.33;10.33;;;;;25.83;43.98;101650.41;5021879;28;45331;-69
2021/06/10 04:56:29;;;;;;;;;10.33;10.33;;;;;25.82;44.09;101651.34;5037394;28;45501;-69
2021/06/10 04:58:54;;;;;;;;;15.00;11.33;;;;;25.82;44.18;101646.03;5021896;28;50590;-69
2021/06/10 05:01:20;;;;;;;;;8.67;8.33;;;;;25.82;44.10;101654.00;5020469;28;45344;-70
2021/06/10 05:03:45;;;;;;;;;10.00;10.00;;;;;25.82;43.87;101651.34;5021572;28;45303;-69
2021/06/10 05:06:10;;;;;;;;;9.33;9.33;;;;;25.81;44.04;101658.44;5021458;28;48133;-72
2021/06/10 05:08:36;;;;;;;;;13.00;11.67;;;;;25.81;43.91;101654.94;5021472;28;46184;-70
2021/06/10 05:11:01;;;;;;;;;9.33;9.33;;;;;25.81;44.20;101661.09;5020679;28;45462;-70
2021/06/10 05:13:27;;;;;;;;;10.33;10.33;;;;;25.81;43.75;101661.09;5025294;28;45319;-69
2021/06/10 05:15:52;;;;;;;;;9.00;9.00;;;;;25.81;43.96;101654.94;5025246;28;45247;-67
2021/06/10 05:18:18;;;;;;;;;11.00;9.67;;;;;25.80;43.92;101662.03;5024345;28;45230;-64
2021/06/10 05:20:44;;;;;;;;;10.00;8.67;;;;;25.80;43.93;101651.41;5023369;28;45647;-72
2021/06/10 20:32:14;;;;;;;;;21.00;19.67;;;;;25.09;48.96;101552.25;5115464;27;45386;-66
2021/06/10 20:34:40;;;;;;;;;16.67;16.00;;;;;25.21;48.76;101552.56;5098532;27;45365;-65
2021/06/10 20:37:05;;;;;;;;;13.67;13.67;;;;;25.34;48.46;101561.63;5096881;27;58600;-66
2021/06/10 20:39:31;;;;;;;;;11.67;11.00;;;;;25.49;48.31;101569.75;5097927;27;45411;-65
2021/06/10 20:41:56;;;;;;;;;13.00;12.00;;;;;25.62;47.84;101564.69;5083421;27;46492;-65
2021/06/10 20:44:22;;;;;;;;;10.50;10.50;;;;;25.76;47.64;101561.28;5091379;27;48239;-66
2021/06/10 20:46:47;;;;;;;;;9.67;9.00;;;;;25.91;47.51;101563.13;5090852;27;45451;-64
2021/06/10 20:49:13;;;;;;;;;9.67;9.67;;;;;26.03;47.34;101566.91;5078212;27;45253;-65
2021/06/10 20:51:40;;;;;;;;;8.67;8.67;;;;;26.16;46.97;101567.16;5059696;28;46918;-64
2021/06/10 20:54:10;;;;;;;;;10.00;9.33;;;;;26.27;46.78;101564.75;5059565;27;45359;-65
2021/06/10 20:56:37;;;;;;;;;11.33;11.33;;;;;26.38;46.51;101569.47;5081533;27;45446;-67
2021/06/10 20:59:03;;;;;;;;;9.67;9.67;;;;;26.47;46.24;101566.28;5094814;27;45618;-65
2021/06/10 21:01:29;;;;;;;;;10.00;9.67;;;;;26.55;46.04;101576.50;5090192;27;46171;-67
2021/06/10 21:03:54;;;;;;;;;13.00;10.33;;;;;26.66;46.00;101572.38;5086933;27;45443;-67
2021/06/10 21:06:19;;;;;;;;;15.67;15.00;;;;;26.73;45.98;101581.72;5089976;27;45242;-65
2021/06/10 21:08:45;;;;;;;;;13.33;11.33;;;;;26.78;45.46;101577.84;5084179;27;45899;-63
2021/06/10 21:11:10;;;;;;;;;12.00;10.33;;;;;26.84;45.15;101583.81;5076079;28;46000;-65
2021/06/10 21:13:36;;;;;;;;;14.33;14.00;;;;;26.91;44.99;101579.84;5077671;27;45256;-67
2021/06/10 21:16:02;;;;;;;;;12.67;12.00;;;;;26.93;44.96;101578.78;5077716;27;45424;-66
2021/06/10 21:18:29;;;;;;;;;11.67;10.00;;;;;27.00;44.84;101586.44;5077513;27;45687;-67
2021/06/10 21:20:55;;;;;;;;;12.00;12.00;;;;;27.03;44.74;101580.94;5077439;28;46166;-66
2021/06/10 21:23:22;;;;;;;;;12.00;10.00;;;;;27.05;44.98;101579.91;5076437;28;45370;-66
2021/06/10 21:25:47;;;;;;;;;10.67;10.67;;;;;27.08;44.64;101585.03;5077756;27;45567;-66
2021/06/10 21:28:13;;;;;;;;;10.67;10.33;;;;;27.11;44.52;101578.66;5075906;27;45349;-66
2021/06/10 21:30:38;;;;;;;;;11.00;11.00;;;;;27.13;44.30;101579.44;5088710;27;47249;-65
2021/06/10 21:33:04;;;;;;;;;11.67;10.33;;;;;27.15;44.29;101584.69;5078664;27;45299;-65
2021/06/10 21:35:30;;;;;;;;;8.33;8.33;;;;;27.17;44.24;101581.00;5076288;28;45418;-66
2021/06/10 21:37:58;;;;;;;;;8.00;8.00;;;;;27.19;44.48;101578.22;5073128;27;45222;-64
2021/06/10 21:40:24;;;;;;;;;11.33;10.67;;;;;27.20;44.18;101580.81;5076697;27;46959;-66
2021/06/10 21:42:50;;;;;;;;;16.00;13.33;;;;;27.21;44.58;101589.66;5079472;28;45444;-68
2021/06/10 21:45:16;;;;;;;;;11.67;11.67;;;;;27.21;44.58;101584.31;5082896;28;45387;-66
2021/06/10 21:47:41;;;;;;;;;12.67;11.67;;;;;27.23;44.49;101585.94;5081801;28;45647;-64
2021/06/10 21:50:07;;;;;;;;;12.67;11.67;;;;;27.25;44.66;101583.19;5046989;28;46423;-65
2021/06/10 21:52:33;;;;;;;;;12.33;11.00;;;;;27.26;44.16;101587.59;5072161;27;45277;-66
2021/06/10 21:55:00;;;;;;;;;10.00;10.00;;;;;27.26;43.84;101584.91;5066517;28;45278;-66
2021/06/10 21:57:26;;;;;;;;;8.33;8.33;;;;;27.26;43.90;101584.91;5063261;28;45270;-66
2021/06/10 21:59:51;;;;;;;;;9.33;8.67;;;;;27.27;44.42;101585.75;5071487;27;46179;-67
2021/06/10 22:02:20;;;;;;;;;8.33;8.33;;;;;27.26;43.75;101584.91;5071517;27;45535;-66
2021/06/10 22:04:46;;;;;;;;;11.67;9.33;;;;;27.29;43.78;101586.53;5079812;28;45357;-67
2021/06/10 22:07:12;;;;;;;;;10.33;10.33;;;;;27.29;43.82;101581.19;5074098;28;45248;-64
2021/06/10 22:09:37;;;;;;;;;10.33;9.67;;;;;27.28;43.82;101591.03;5073890;27;45772;-64
2021/06/10 22:12:03;;;;;;;;;11.33;9.33;;;;;27.29;44.18;101587.41;5072383;28;45392;-63
2021/06/10 22:14:29;;;;;;;;;9.00;8.67;;;;;27.29;43.89;101581.19;5080827;28;45243;-63
2021/06/10 22:16:56;;;;;;;;;9.67;9.33;;;;;27.29;43.75;101592.72;5062962;28;45577;-62
2021/06/10 22:19:21;;;;;;;;;8.00;8.00;;;;;27.30;43.84;101593.56;5080775;28;47174;-63
2021/06/10 22:21:47;;;;;;;;;9.00;9.00;;;;;27.30;44.32;101597.09;5082713;28;45415;-62
2021/06/10 22:24:13;;;;;;;;;9.00;9.00;;;;;27.30;43.61;101598.91;5082843;28;45381;-62
2021/06/10 22:26:39;;;;;;;;;10.00;9.33;;;;;27.29;43.53;101592.72;5084377;27;45502;-63
2021/06/10 22:29:05;;;;;;;;;8.33;8.33;;;;;27.28;43.59;101603.47;5077370;27;46919;-64
2021/06/10 22:31:31;;;;;;;;;8.33;8.33;;;;;27.28;43.68;101600.81;5083657;27;45333;-64
2021/06/10 22:33:57;;;;;;;;;8.33;8.33;;;;;27.27;43.56;101597.28;5048162;28;45168;-64
2021/06/10 22:36:23;;;;;;;;;8.00;8.00;;;;;27.27;44.32;101596.41;5074021;28;45471;-65
2021/06/10 22:38:49;;;;;;;;;9.00;7.67;;;;;27.26;43.83;101597.38;5064910;28;54932;-64
2021/06/10 22:41:15;;;;;;;;;7.33;7.33;;;;;27.26;43.59;101592.03;5073973;28;45325;-64
2021/06/10 22:43:41;;;;;;;;;7.33;6.00;;;;;27.25;43.68;101593.84;5083743;27;45176;-63
2021/06/10 22:46:11;;;;;;;;;8.67;8.67;;;;;27.23;43.87;101585.94;5055277;28;45238;-64
2021/06/10 22:48:37;;;;;;;;;8.00;8.00;;;;;27.22;43.60;101586.03;5081143;28;45508;-64
2021/06/10 22:51:04;;;;;;;;;9.00;9.00;;;;;27.21;43.93;101584.31;5082195;28;45353;-63
2021/06/10 22:53:36;;;;;;;;;7.00;7.00;;;;;27.20;43.83;101583.47;5082722;27;45142;-63
2021/06/10 22:56:02;;;;;;;;;6.67;6.67;;;;;27.21;43.76;101582.53;5083801;27;45380;-63
2021/06/10 22:58:27;;;;;;;;;9.00;8.67;;;;;27.20;43.39;101586.13;5081999;28;46293;-63
2021/06/10 23:00:54;;;;;;;;;8.33;8.00;;;;;27.20;43.93;101583.47;5083510;27;45247;-63
2021/06/10 23:03:20;;;;;;;;;8.33;8.33;;;;;27.19;44.24;101587.09;5082044;28;45214;-63
2021/06/10 23:05:46;;;;;;;;;9.67;8.67;;;;;27.19;43.78;101594.22;5078906;27;45167;-63
2021/06/10 23:08:13;;;;;;;;;7.33;7.33;;;;;27.19;44.05;101587.09;5062891;28;46194;-63
2021/06/10 23:10:39;;;;;;;;;7.00;7.00;;;;;27.20;43.43;101590.59;5062954;28;45443;-63
2021/06/10 23:13:05;;;;;;;;;6.00;6.00;;;;;27.18;43.49;101581.81;5061510;28;45358;-64
2021/06/10 23:15:31;;;;;;;;;10.00;8.67;;;;;27.18;43.44;101592.50;5063640;28;45437;-62
2021/06/10 23:17:56;;;;;;;;;9.00;7.67;;;;;27.17;44.06;101588.97;5062321;28;46163;-62
2021/06/10 23:20:22;;;;;;;;;8.00;8.00;;;;;27.17;43.62;101596.09;5062999;28;45326;-62
2021/06/10 23:22:47;;;;;;;;;8.00;8.00;;;;;27.17;43.55;101593.44;5079372;28;45310;-65
2021/06/10 23:25:13;;;;;;;;;7.67;7.67;;;;;27.16;43.72;101589.94;5082114;28;45248;-64
2021/06/10 23:27:39;;;;;;;;;6.00;5.33;;;;;27.16;43.77;101589.94;5065031;27;45341;-63
2021/06/10 23:30:06;;;;;;;;;7.33;7.33;;;;;27.15;43.33;101580.22;5062444;28;45295;-64
2021/06/10 23:32:32;;;;;;;;;7.33;7.33;;;;;27.15;43.78;101582.03;5044225;28;45408;-62
2021/06/10 23:34:57;;;;;;;;;6.67;5.67;;;;;27.15;43.47;101590.88;5062883;28;45348;-62
2021/06/10 23:37:23;;;;;;;;;6.67;6.67;;;;;27.15;43.83;101584.69;5072799;28;48039;-62
2021/06/10 23:39:50;;;;;;;;;6.00;5.67;;;;;27.14;44.02;101582.97;5062526;28;45330;-62
2021/06/10 23:42:15;;;;;;;;;6.67;6.67;;;;;27.14;43.51;101582.97;5061364;28;45346;-62
2021/06/10 23:44:40;;;;;;;;;8.67;7.00;;;;;27.13;43.30;101584.78;5062848;28;45282;-61
2021/06/10 23:47:06;;;;;;;;;7.00;5.67;;;;;27.13;43.30;101589.25;5075605;28;45420;-63
2021/06/10 23:49:31;;;;;;;;;7.00;7.00;;;;;27.12;43.91;101590.19;5062299;28;45363;-63
2021/06/10 23:51:57;;;;;;;;;7.67;7.67;;;;;27.12;43.24;101582.22;5066089;27;45278;-63
2021/06/10 23:54:22;;;;;;;;;7.33;7.33;;;;;27.12;43.60;101591.03;5082713;28;55635;-62
2021/06/10 23:56:47;;;;;;;;;6.33;6.33;;;;;27.11;43.54;101594.66;5082721;27;45941;-62
2021/06/10 23:59:13;;;;;;;;;5.67;5.67;;;;;27.11;43.35;101588.47;5082460;27;54831;-63
